createdAt,value
2018-05-06T00:01:10.654Z,36.51
2018-05-06T00:03:39.169Z,37.16
2018-05-06T00:06:07.623Z,36.87
2018-05-06T00:08:35.994Z,35.87
2018-05-06T00:11:04.380Z,37.57
2018-05-06T00:13:32.792Z,35.65
2018-05-06T00:16:01.250Z,36.77
2018-05-06T00:18:29.665Z,37.21
2018-05-06T00:20:58.036Z,37.08
2018-05-06T00:23:26.436Z,36.70
2018-05-06T00:25:54.876Z,37.04
2018-05-06T00:28:33.277Z,37.81
2018-05-06T00:31:01.650Z,36.76
2018-05-06T00:33:30.130Z,37.00
2018-05-06T00:35:58.493Z,37.03
2018-05-06T00:38:26.900Z,36.68
2018-05-06T00:40:55.331Z,36.63
2018-05-06T00:43:23.786Z,36.79
2018-05-06T00:45:52.237Z,35.62
2018-05-06T00:48:20.660Z,36.47
2018-05-06T00:50:49.062Z,35.72
2018-05-06T00:53:17.425Z,36.91
2018-05-06T00:55:45.822Z,35.33
2018-05-06T00:58:14.242Z,35.90
2018-05-06T01:00:43.520Z,34.61
2018-05-06T01:03:11.956Z,34.73
2018-05-06T01:05:40.326Z,34.25
2018-05-06T01:08:08.724Z,35.58
2018-05-06T01:10:37.072Z,35.65
2018-05-06T01:13:05.470Z,35.07
2018-05-06T01:15:33.906Z,34.52
2018-05-06T01:18:02.482Z,35.92
2018-05-06T01:20:30.851Z,35.53
2018-05-06T01:22:59.258Z,36.34
2018-05-06T01:25:27.614Z,35.46
2018-05-06T01:27:56.059Z,35.30
2018-05-06T01:30:24.464Z,34.53
2018-05-06T01:32:52.848Z,35.27
2018-05-06T01:35:21.235Z,35.45
2018-05-06T01:37:49.607Z,35.51
2018-05-06T01:40:18.033Z,36.19
2018-05-06T01:42:46.488Z,36.13
2018-05-06T01:45:14.854Z,36.52
2018-05-06T01:47:43.230Z,36.03
2018-05-06T01:50:11.622Z,36.49
2018-05-06T01:52:40.072Z,36.50
2018-05-06T01:55:08.490Z,36.62
2018-05-06T01:57:36.863Z,36.92
2018-05-06T02:00:05.299Z,36.24
2018-05-06T02:02:33.720Z,35.95
2018-05-06T02:05:02.133Z,36.59
2018-05-06T02:07:30.561Z,35.95
2018-05-06T02:12:33.598Z,36.43
2018-05-06T02:15:01.966Z,35.85
2018-05-06T02:17:30.358Z,36.43
2018-05-06T02:19:58.741Z,36.47
2018-05-06T02:22:27.110Z,36.91
2018-05-06T02:24:55.497Z,36.16
2018-05-06T02:27:23.862Z,36.22
2018-05-06T02:29:52.289Z,36.73
2018-05-06T02:32:20.648Z,36.92
2018-05-06T02:34:49.034Z,37.79
2018-05-06T02:37:17.425Z,36.75
2018-05-06T02:39:45.823Z,36.86
2018-05-06T02:42:14.251Z,38.07
2018-05-06T02:44:42.622Z,37.32
2018-05-06T02:47:10.972Z,37.64
2018-05-06T02:49:39.352Z,37.75
2018-05-06T02:52:07.814Z,37.58
2018-05-06T02:54:36.306Z,37.42
2018-05-06T02:57:04.660Z,39.16
2018-05-06T02:59:33.169Z,37.72
2018-05-06T03:02:01.565Z,37.00
2018-05-06T03:04:29.922Z,37.75
2018-05-06T03:06:58.455Z,39.90
2018-05-06T03:09:26.837Z,38.88
2018-05-06T03:11:55.322Z,38.81
2018-05-06T03:14:23.695Z,38.25
2018-05-06T03:16:52.077Z,38.44
2018-05-06T03:19:20.503Z,37.91
2018-05-06T03:21:48.912Z,37.83
2018-05-06T03:24:17.299Z,38.44
2018-05-06T03:26:45.663Z,38.21
2018-05-06T03:29:14.069Z,38.05
2018-05-06T03:31:42.507Z,38.37
2018-05-06T03:34:10.865Z,38.92
2018-05-06T03:36:39.236Z,38.59
2018-05-06T03:39:07.703Z,38.35
2018-05-06T03:41:36.186Z,39.11
2018-05-06T03:44:04.576Z,38.18
2018-05-06T03:46:32.938Z,38.35
2018-05-06T03:49:01.303Z,38.17
2018-05-06T03:51:29.691Z,38.76
2018-05-06T03:53:58.109Z,38.54
2018-05-06T03:59:50.054Z,38.39
2018-05-06T04:05:18.466Z,37.75
2018-05-06T04:07:46.853Z,39.21
2018-05-06T04:10:15.279Z,38.99
2018-05-06T04:12:43.638Z,37.20
2018-05-06T04:15:12.005Z,38.12
2018-05-06T04:17:40.366Z,37.69
2018-05-06T04:20:08.780Z,37.46
2018-05-06T04:22:37.174Z,39.84
2018-05-06T04:25:05.598Z,37.28
2018-05-06T04:27:33.978Z,36.99
2018-05-06T04:30:02.368Z,37.55
2018-05-06T04:32:30.806Z,38.80
2018-05-06T04:34:59.221Z,38.48
2018-05-06T04:37:27.601Z,38.45
2018-05-06T04:39:56.004Z,37.82
2018-05-06T04:42:24.369Z,38.04
2018-05-06T04:44:52.845Z,37.15
2018-05-06T04:47:21.232Z,37.54
2018-05-06T04:49:49.695Z,37.08
2018-05-06T04:52:18.091Z,38.92
2018-05-06T04:54:46.514Z,37.79
2018-05-06T04:57:14.866Z,37.70
2018-05-06T04:59:43.393Z,36.78
2018-05-06T05:02:11.813Z,36.94
2018-05-06T05:04:40.233Z,36.88
2018-05-06T05:07:08.684Z,37.93
2018-05-06T05:09:37.139Z,37.44
2018-05-06T05:12:05.567Z,37.39
2018-05-06T05:14:33.966Z,36.75
2018-05-06T05:17:02.440Z,36.53
2018-05-06T05:19:30.913Z,37.50
2018-05-06T05:21:59.433Z,36.39
2018-05-06T05:24:27.824Z,36.85
2018-05-06T05:26:56.295Z,35.75
2018-05-06T05:29:24.729Z,36.86
2018-05-06T05:31:53.156Z,35.64
2018-05-06T05:34:21.614Z,32.21
2018-05-06T05:36:50.016Z,31.26
2018-05-06T05:39:18.427Z,28.43
2018-05-06T05:41:46.808Z,26.84
2018-05-06T05:44:15.224Z,27.85
2018-05-06T05:46:43.700Z,27.28
2018-05-06T05:49:12.101Z,25.91
2018-05-06T05:51:40.528Z,24.78
2018-05-06T05:54:08.937Z,24.54
2018-05-06T05:56:37.489Z,24.62
2018-05-06T05:59:05.972Z,25.13
2018-05-06T06:01:34.462Z,22.87
2018-05-06T06:04:02.885Z,23.53
2018-05-06T06:06:31.309Z,22.74
2018-05-06T06:08:59.708Z,23.20
2018-05-06T06:11:28.149Z,23.70
2018-05-06T06:13:56.533Z,22.78
2018-05-06T06:16:24.961Z,23.86
2018-05-06T06:18:53.388Z,23.24
2018-05-06T06:21:21.859Z,23.50
2018-05-06T06:23:50.289Z,24.17
2018-05-06T06:26:18.761Z,24.09
2018-05-06T06:28:47.163Z,24.20
2018-05-06T06:31:15.567Z,22.59
2018-05-06T06:33:43.979Z,22.97
2018-05-06T06:36:12.457Z,22.10
2018-05-06T06:38:40.910Z,20.71
2018-05-06T06:41:09.320Z,20.50
2018-05-06T06:43:37.721Z,19.54
2018-05-06T06:46:06.140Z,19.74
2018-05-06T06:48:34.622Z,19.03
2018-05-06T06:51:03.142Z,18.86
2018-05-06T06:53:31.561Z,19.14
2018-05-06T06:55:59.985Z,18.77
2018-05-06T06:58:28.449Z,19.10
2018-05-06T07:00:56.844Z,19.41
2018-05-06T07:03:25.216Z,20.26
2018-05-06T07:05:53.657Z,19.13
2018-05-06T07:08:22.081Z,17.49
2018-05-06T07:10:50.494Z,16.77
2018-05-06T07:13:18.862Z,18.36
2018-05-06T07:15:47.334Z,18.76
2018-05-06T07:18:15.747Z,19.46
2018-05-06T07:20:44.160Z,19.13
2018-05-06T07:23:12.581Z,18.47
2018-05-06T07:25:40.994Z,17.97
2018-05-06T07:28:09.425Z,19.56
2018-05-06T07:30:37.867Z,18.34
2018-05-06T07:33:06.265Z,18.21
2018-05-06T07:35:34.677Z,17.90
2018-05-06T07:38:03.259Z,17.72
2018-05-06T07:40:31.721Z,17.78
2018-05-06T07:43:00.152Z,18.92
2018-05-06T07:45:28.604Z,17.54
2018-05-06T07:47:57.012Z,19.21
2018-05-06T07:50:25.501Z,17.89
2018-05-06T07:52:53.939Z,17.11
2018-05-06T07:55:22.306Z,17.75
2018-05-06T07:57:50.807Z,17.93
2018-05-06T08:00:22.336Z,17.59
2018-05-06T08:02:50.767Z,17.99
2018-05-06T08:05:19.156Z,18.69
2018-05-06T08:07:47.633Z,18.08
2018-05-06T08:10:16.067Z,18.58
2018-05-06T08:12:44.492Z,17.71
2018-05-06T08:15:12.875Z,17.49
2018-05-06T08:17:41.252Z,17.33
2018-05-06T08:20:09.605Z,16.71
2018-05-06T08:22:38.048Z,16.22
2018-05-06T08:25:06.418Z,17.48
2018-05-06T08:27:34.816Z,16.27
2018-05-06T08:30:03.198Z,18.27
2018-05-06T08:32:31.672Z,17.59
2018-05-06T08:35:00.098Z,17.83
2018-05-06T08:37:28.501Z,16.94
2018-05-06T08:39:56.876Z,17.15
2018-05-06T08:42:25.312Z,16.24
2018-05-06T08:44:53.779Z,17.38
2018-05-06T08:47:22.183Z,17.39
2018-05-06T08:49:50.644Z,17.55
2018-05-06T08:52:19.095Z,15.46
2018-05-06T08:54:47.941Z,16.04
2018-05-06T08:57:16.382Z,16.29
2018-05-06T08:59:44.887Z,15.88
2018-05-06T09:02:13.302Z,16.59
2018-05-06T09:04:41.817Z,16.19
2018-05-06T09:07:10.267Z,16.07
2018-05-06T09:09:39.027Z,15.31
2018-05-06T09:12:07.722Z,15.89
2018-05-06T09:14:36.589Z,14.82
2018-05-06T09:17:05.348Z,14.49
2018-05-06T09:19:34.134Z,16.87
2018-05-06T09:22:02.637Z,16.35
2018-05-06T09:24:31.037Z,17.35
2018-05-06T09:26:59.408Z,17.12
2018-05-06T09:29:27.880Z,18.33
2018-05-06T09:31:56.259Z,18.08
2018-05-06T09:34:24.641Z,17.12
2018-05-06T09:36:53.053Z,17.29
2018-05-06T09:39:21.444Z,17.44
2018-05-06T09:41:49.900Z,16.63
2018-05-06T09:44:18.329Z,16.17
2018-05-06T09:46:46.801Z,16.45
2018-05-06T09:49:15.208Z,16.66
2018-05-06T09:51:43.627Z,15.90
2018-05-06T09:54:12.099Z,14.99
2018-05-06T09:56:40.495Z,15.41
2018-05-06T09:59:08.953Z,15.45
2018-05-06T10:01:37.407Z,15.70
2018-05-06T10:04:05.803Z,15.04
2018-05-06T10:06:34.210Z,16.35
2018-05-06T10:09:03.673Z,16.83
2018-05-06T10:11:32.119Z,16.21
2018-05-06T10:14:00.680Z,16.11
2018-05-06T10:16:29.108Z,16.80
2018-05-06T10:18:57.528Z,17.43
2018-05-06T10:21:25.974Z,16.28
2018-05-06T10:23:54.384Z,17.00
2018-05-06T10:26:24.193Z,16.85
2018-05-06T10:28:52.631Z,17.03
2018-05-06T10:31:21.050Z,16.88
2018-05-06T10:33:49.463Z,16.17
2018-05-06T10:36:17.882Z,18.02
2018-05-06T10:38:46.364Z,16.87
2018-05-06T10:41:14.772Z,16.32
2018-05-06T10:43:43.182Z,16.39
2018-05-06T10:46:11.607Z,16.31
2018-05-06T10:48:40.061Z,16.79
2018-05-06T10:51:08.535Z,15.89
2018-05-06T10:53:37.047Z,16.01
2018-05-06T10:56:05.475Z,15.66
2018-05-06T10:58:33.931Z,16.67
2018-05-06T11:01:02.361Z,16.34
2018-05-06T11:03:30.837Z,16.33
2018-05-06T11:05:59.239Z,16.03
2018-05-06T11:08:27.728Z,16.11
2018-05-06T11:10:56.148Z,15.64
2018-05-06T11:13:24.565Z,15.99
2018-05-06T11:15:53.060Z,17.04
2018-05-06T11:18:21.483Z,16.77
2018-05-06T11:20:50.248Z,16.62
2018-05-06T11:23:18.872Z,17.11
2018-05-06T11:25:47.367Z,18.01
2018-05-06T11:28:15.950Z,17.71
2018-05-06T11:30:44.633Z,18.97
2018-05-06T11:33:13.072Z,18.36
2018-05-06T11:35:41.537Z,18.27
2018-05-06T11:38:10.239Z,20.05
2018-05-06T11:40:38.867Z,20.94
2018-05-06T11:43:07.348Z,20.04
2018-05-06T11:45:35.838Z,20.31
2018-05-06T11:48:04.459Z,20.17
2018-05-06T11:50:32.981Z,20.52
2018-05-06T11:53:02.435Z,22.05
2018-05-06T11:55:30.989Z,21.53
2018-05-06T11:57:59.494Z,21.72
2018-05-06T12:00:27.971Z,21.88
2018-05-06T12:02:56.452Z,21.41
2018-05-06T12:05:25.049Z,21.18
2018-05-06T12:07:53.606Z,23.33
2018-05-06T12:10:22.130Z,21.78
2018-05-06T12:12:50.541Z,21.85
2018-05-06T12:15:18.995Z,21.50
2018-05-06T12:17:47.541Z,21.32
2018-05-06T12:20:16.126Z,22.93
2018-05-06T12:22:44.534Z,23.62
2018-05-06T12:25:12.985Z,23.42
2018-05-06T12:27:41.534Z,23.17
2018-05-06T12:30:09.950Z,23.69
2018-05-06T12:32:38.442Z,23.21
2018-05-06T12:35:07.003Z,24.62
2018-05-06T12:37:35.480Z,23.71
2018-05-06T12:40:04.003Z,25.21
2018-05-06T12:42:32.385Z,25.25
2018-05-06T12:45:00.969Z,24.43
2018-05-06T12:47:29.444Z,24.68
2018-05-06T12:49:57.871Z,23.87
2018-05-06T12:52:26.409Z,23.63
2018-05-06T12:54:54.878Z,23.99
2018-05-06T12:57:23.375Z,23.91
2018-05-06T12:59:52.008Z,22.01
2018-05-06T13:02:20.601Z,23.04
2018-05-06T13:04:48.992Z,22.12
2018-05-06T13:07:17.429Z,23.03
2018-05-06T13:09:45.888Z,23.14
2018-05-06T13:12:14.340Z,23.85
2018-05-06T13:14:42.796Z,23.22
2018-05-06T13:17:11.201Z,24.19
2018-05-06T13:19:39.590Z,23.75
2018-05-06T13:22:08.092Z,23.58
2018-05-06T13:24:36.727Z,24.33
2018-05-06T13:27:05.205Z,25.26
2018-05-06T13:29:33.611Z,25.35
2018-05-06T13:32:02.078Z,25.57
2018-05-06T13:34:30.535Z,24.99
2018-05-06T13:36:58.953Z,24.55
2018-05-06T13:39:27.452Z,24.68
2018-05-06T13:41:55.892Z,25.35
2018-05-06T13:44:24.357Z,24.91
2018-05-06T13:46:52.756Z,24.68
2018-05-06T13:49:21.169Z,24.45
2018-05-06T13:51:49.817Z,24.42
2018-05-06T13:54:18.299Z,24.74
2018-05-06T13:56:46.691Z,25.55
2018-05-06T13:59:15.315Z,25.63
2018-05-06T14:01:43.818Z,26.58
2018-05-06T14:04:12.351Z,26.22
2018-05-06T14:06:40.784Z,24.78
2018-05-06T14:09:09.272Z,25.29
2018-05-06T14:11:37.733Z,24.96
2018-05-06T14:14:06.158Z,25.03
2018-05-06T14:16:34.728Z,25.67
2018-05-06T14:19:03.318Z,25.59
2018-05-06T14:21:31.842Z,25.56
2018-05-06T14:24:00.343Z,26.02
2018-05-06T14:26:28.874Z,25.05
2018-05-06T14:28:57.347Z,25.04
2018-05-06T14:31:25.763Z,25.21
2018-05-06T14:33:54.225Z,25.41
2018-05-06T14:36:22.707Z,25.09
2018-05-06T14:38:52.806Z,25.82
2018-05-06T14:41:22.113Z,26.74
2018-05-06T14:43:50.942Z,25.47
2018-05-06T14:46:31.350Z,25.75
2018-05-06T14:48:59.838Z,25.09
2018-05-06T14:51:29.358Z,24.61
2018-05-06T14:54:10.811Z,26.03
2018-05-06T14:59:42.573Z,24.78
2018-05-06T15:02:11.779Z,26.52
2018-05-06T15:04:40.177Z,25.15
2018-05-06T15:07:08.663Z,24.90
2018-05-06T15:09:37.064Z,26.67
2018-05-06T15:12:05.538Z,26.71
2018-05-06T15:14:36.803Z,26.15
2018-05-06T15:17:05.460Z,26.09
2018-05-06T15:19:41.307Z,26.27
2018-05-06T15:22:09.782Z,26.09
2018-05-06T15:24:38.211Z,26.59
2018-05-06T15:27:06.606Z,26.16
2018-05-06T15:29:35.013Z,26.26
2018-05-06T15:32:03.415Z,25.84
2018-05-06T15:34:31.841Z,27.21
2018-05-06T15:37:00.362Z,26.63
2018-05-06T15:39:28.768Z,26.74
2018-05-06T15:41:57.168Z,26.62
2018-05-06T15:44:25.647Z,27.65
2018-05-06T15:46:54.108Z,26.51
2018-05-06T15:49:22.778Z,27.14
2018-05-06T15:51:55.495Z,26.33
2018-05-06T15:54:30.114Z,26.48
2018-05-06T15:59:55.597Z,27.47
2018-05-06T16:05:22.413Z,26.62
2018-05-06T16:07:51.012Z,26.87
2018-05-06T16:10:19.470Z,26.79
2018-05-06T16:12:47.821Z,26.39
2018-05-06T16:15:16.242Z,26.29
2018-05-06T16:17:44.750Z,26.67
2018-05-06T16:20:13.146Z,26.41
2018-05-06T16:22:41.574Z,27.35
2018-05-06T16:25:09.978Z,27.44
2018-05-06T16:27:38.386Z,26.54
2018-05-06T16:30:07.242Z,27.37
2018-05-06T16:32:38.298Z,27.33
2018-05-06T16:35:09.348Z,28.07
2018-05-06T16:37:39.205Z,26.36
2018-05-06T16:40:08.452Z,27.13
2018-05-06T16:42:37.064Z,27.08
2018-05-06T16:45:05.746Z,27.21
2018-05-06T16:47:34.347Z,27.16
2018-05-06T16:50:02.842Z,26.86
2018-05-06T16:52:31.901Z,26.96
2018-05-06T16:55:00.451Z,26.85
2018-05-06T16:57:28.883Z,27.03
2018-05-06T16:59:57.356Z,27.36
2018-05-06T17:02:25.804Z,27.53
2018-05-06T17:04:54.245Z,28.07
2018-05-06T17:07:22.735Z,27.01
2018-05-06T17:09:51.102Z,28.31
2018-05-06T17:12:19.569Z,28.29
2018-05-06T17:14:47.952Z,29.08
2018-05-06T17:17:16.618Z,27.70
2018-05-06T17:19:45.728Z,28.91
2018-05-06T17:22:14.056Z,29.20
2018-05-06T17:24:42.453Z,29.31
2018-05-06T17:27:10.833Z,29.61
2018-05-06T17:29:39.193Z,28.74
2018-05-06T17:32:07.679Z,28.86
2018-05-06T17:34:36.142Z,28.44
2018-05-06T17:37:04.652Z,28.95
2018-05-06T17:39:33.065Z,28.79
2018-05-06T17:42:01.474Z,29.11
2018-05-06T17:44:29.870Z,28.83
2018-05-06T17:46:58.256Z,29.28
2018-05-06T17:49:26.781Z,28.95
2018-05-06T17:51:55.197Z,29.20
2018-05-06T17:54:23.601Z,30.06
2018-05-06T17:56:52.017Z,30.14
2018-05-06T17:59:20.463Z,30.01
2018-05-06T18:01:48.989Z,29.98
2018-05-06T18:04:17.454Z,30.31
2018-05-06T18:06:45.869Z,31.70
2018-05-06T18:09:14.279Z,30.39
2018-05-06T18:11:44.181Z,29.74
2018-05-06T18:14:14.101Z,30.56
2018-05-06T18:16:42.537Z,31.08
2018-05-06T18:19:10.947Z,30.53
2018-05-06T18:21:39.438Z,30.08
2018-05-06T18:24:07.878Z,30.51
2018-05-06T18:26:36.362Z,30.54
2018-05-06T18:29:05.284Z,31.20
2018-05-06T18:31:33.826Z,31.88
2018-05-06T18:34:03.095Z,31.30
2018-05-06T18:36:32.809Z,32.50
2018-05-06T18:39:01.512Z,32.58
2018-05-06T18:41:30.194Z,32.73
2018-05-06T18:43:58.670Z,33.26
2018-05-06T18:46:27.126Z,32.19
2018-05-06T18:48:55.546Z,31.92
2018-05-06T18:51:24.013Z,32.43
2018-05-06T18:53:52.429Z,33.01
2018-05-06T18:56:20.826Z,34.43
2018-05-06T18:58:50.074Z,33.87
2018-05-06T19:01:18.994Z,33.73
2018-05-06T19:03:47.710Z,34.17
2018-05-06T19:06:16.143Z,34.08
2018-05-06T19:08:45.023Z,34.32
2018-05-06T19:11:14.189Z,35.85
2018-05-06T19:13:42.851Z,35.65
2018-05-06T19:16:12.460Z,35.96
2018-05-06T19:19:03.044Z,36.10
2018-05-06T19:21:47.143Z,36.24
2018-05-06T19:24:18.285Z,36.15
2018-05-06T19:26:46.933Z,36.21
2018-05-06T19:29:15.352Z,36.35
2018-05-06T19:31:44.253Z,36.54
2018-05-06T19:34:12.951Z,36.88
2018-05-06T19:36:41.513Z,36.16
2018-05-06T19:39:10.105Z,36.91
2018-05-06T19:41:38.643Z,38.10
2018-05-06T19:44:07.263Z,38.39
2018-05-06T19:46:35.787Z,37.83
2018-05-06T19:49:04.454Z,37.89
2018-05-06T19:54:07.535Z,38.34
2018-05-06T19:56:36.029Z,40.00
2018-05-06T19:59:04.481Z,39.57
2018-05-06T20:01:34.613Z,39.72
2018-05-06T20:04:03.505Z,39.88
2018-05-06T20:06:32.216Z,40.18
2018-05-06T20:09:01.793Z,39.91
2018-05-06T20:11:30.810Z,40.02
2018-05-06T20:13:59.254Z,40.04
2018-05-06T20:16:30.093Z,39.53
2018-05-06T20:18:58.602Z,39.63
2018-05-06T20:21:27.333Z,39.76
2018-05-06T20:23:55.742Z,40.07
2018-05-06T20:26:24.389Z,40.49
2018-05-06T20:28:53.109Z,40.83
2018-05-06T20:31:21.552Z,39.99
2018-05-06T20:33:49.946Z,42.16
2018-05-06T20:36:18.336Z,40.93
2018-05-06T20:38:46.813Z,41.63
2018-05-06T20:41:15.451Z,40.31
2018-05-06T20:43:43.956Z,41.28
2018-05-06T20:46:12.478Z,41.47
2018-05-06T20:48:41.270Z,40.73
2018-05-06T20:51:10.385Z,42.02
2018-05-06T20:53:39.804Z,41.26
2018-05-06T20:56:08.587Z,40.88
2018-05-06T20:58:37.471Z,41.85
2018-05-06T21:01:06.185Z,41.92
2018-05-06T21:03:34.668Z,42.93
2018-05-06T21:06:03.918Z,42.79
2018-05-06T21:08:32.820Z,42.60
2018-05-06T21:11:02.497Z,42.89
2018-05-06T21:13:31.233Z,43.25
2018-05-06T21:15:59.701Z,42.73
2018-05-06T21:18:28.197Z,43.60
2018-05-06T21:20:56.685Z,44.01
2018-05-06T21:23:25.155Z,43.87
2018-05-06T21:25:53.646Z,44.03
2018-05-06T21:28:22.266Z,43.63
2018-05-06T21:30:52.861Z,43.04
2018-05-06T21:33:21.422Z,42.85
2018-05-06T21:35:50.420Z,44.60
2018-05-06T21:38:19.170Z,43.80
2018-05-06T21:40:47.835Z,44.68
2018-05-06T21:43:16.832Z,43.59
2018-05-06T21:45:45.318Z,44.34
2018-05-06T21:48:13.721Z,44.53
2018-05-06T21:50:42.127Z,43.35
2018-05-06T21:53:10.599Z,43.83
2018-05-06T21:55:39.041Z,43.39
2018-05-06T21:58:07.575Z,43.57
2018-05-06T22:00:36.018Z,43.27
2018-05-06T22:03:04.428Z,43.97
2018-05-06T22:05:32.839Z,43.58
2018-05-06T22:08:01.230Z,44.19
2018-05-06T22:10:29.688Z,43.85
2018-05-06T22:12:58.098Z,45.01
2018-05-06T22:15:26.511Z,44.74
2018-05-06T22:17:54.912Z,45.15
2018-05-06T22:20:23.311Z,46.11
2018-05-06T22:22:51.753Z,46.31
2018-05-06T22:25:20.153Z,46.85
2018-05-06T22:27:48.532Z,47.07
2018-05-06T22:30:16.985Z,46.20
2018-05-06T22:32:45.396Z,47.18
2018-05-06T22:35:13.845Z,47.65
2018-05-06T22:37:42.246Z,47.34
2018-05-06T22:40:10.637Z,47.80
2018-05-06T22:42:39.100Z,47.91
2018-05-06T22:45:08.421Z,48.22
2018-05-06T22:47:36.872Z,48.92
2018-05-06T22:50:05.373Z,48.38
2018-05-06T22:52:33.761Z,48.15
2018-05-06T22:55:02.166Z,49.84
2018-05-06T22:57:30.641Z,50.21
2018-05-06T22:59:59.138Z,49.14
2018-05-06T23:02:27.551Z,48.58
2018-05-06T23:04:55.954Z,49.68
2018-05-06T23:07:24.383Z,49.50
2018-05-06T23:09:52.801Z,50.42
2018-05-06T23:12:21.178Z,49.05
2018-05-06T23:14:49.634Z,49.18
2018-05-06T23:17:18.050Z,50.18
2018-05-06T23:19:46.405Z,51.88
2018-05-06T23:22:14.797Z,51.43
2018-05-06T23:24:43.142Z,51.67
2018-05-06T23:27:11.556Z,51.09
2018-05-06T23:29:39.975Z,49.97
2018-05-06T23:32:08.335Z,50.03
2018-05-06T23:34:36.694Z,51.15
2018-05-06T23:37:05.072Z,50.42
2018-05-06T23:39:33.429Z,52.02
2018-05-06T23:42:01.858Z,52.12
2018-05-06T23:44:30.218Z,51.94
2018-05-06T23:46:58.582Z,53.12
2018-05-06T23:49:26.973Z,51.96
2018-05-06T23:51:55.362Z,51.29
2018-05-06T23:54:23.793Z,52.81
2018-05-06T23:56:52.277Z,51.77
2018-05-06T23:59:20.653Z,52.08
